Time;durP1;ratioP1;P1;durP2;ratioP2;P2;SDS_P1;SDS_P2;PMS_P1;PMS_P2;Temp;Humidity;BMP_temperature;BMP_pressure;BME280_temperature;BME280_humidity;BME280_pressure;Samples;Min_cycle;Max_cycle;Signal;HPM_P1;HPM_P2
2024/03/23 00:01:16;;;;;;;6.50;2.50;;;23.30;64.80;;;;;;5075494;28;20535;-73
2024/03/23 00:03:44;;;;;;;10.87;2.40;;;23.30;65.00;;;;;;5080259;28;20178;-75
2024/03/23 00:06:17;;;;;;;8.60;2.27;;;23.50;65.20;;;;;;5075686;28;21553;-73
2024/03/23 00:08:46;;;;;;;6.47;2.17;;;23.50;63.90;;;;;;5082218;28;20585;-73
2024/03/23 00:11:17;;;;;;;9.83;2.07;;;23.60;63.80;;;;;;5075939;28;20183;-74
2024/03/23 00:13:45;;;;;;;6.30;1.80;;;23.70;63.40;;;;;;5079783;28;20186;-75
2024/03/23 00:16:13;;;;;;;9.00;2.10;;;23.80;63.00;;;;;;5073820;28;20236;-75
2024/03/23 00:18:41;;;;;;;7.60;1.90;;;23.80;63.00;;;;;;5077323;28;20187;-76
2024/03/23 00:21:10;;;;;;;11.07;1.93;;;24.10;62.10;;;;;;5091464;28;20186;-75
2024/03/23 00:23:38;;;;;;;5.23;1.80;;;24.00;62.50;;;;;;5077079;28;20176;-77
2024/03/23 00:26:07;;;;;;;5.80;1.70;;;23.90;61.90;;;;;;5074636;28;20642;-75
2024/03/23 00:28:35;;;;;;;6.93;1.87;;;24.30;61.90;;;;;;5077262;28;20214;-75
2024/03/23 00:31:03;;;;;;;8.23;1.93;;;24.40;61.50;;;;;;5074704;28;20172;-76
2024/03/23 00:33:35;;;;;;;4.20;1.50;;;24.40;61.40;;;;;;5081210;28;20182;-75
2024/03/23 00:36:06;;;;;;;10.53;1.80;;;24.30;60.60;;;;;;5076208;28;20218;-74
2024/03/23 00:38:34;;;;;;;7.03;2.07;;;24.40;60.80;;;;;;5081406;28;20226;-76
2024/03/23 00:41:02;;;;;;;6.97;1.63;;;24.50;60.60;;;;;;5061453;28;20229;-75
2024/03/23 00:43:31;;;;;;;9.67;1.97;;;24.70;60.10;;;;;;5076103;28;20174;-74
2024/03/23 00:45:59;;;;;;;4.20;1.40;;;24.90;60.10;;;;;;5075031;28;20191;-74
2024/03/23 00:48:27;;;;;;;6.83;1.70;;;24.80;58.60;;;;;;5081092;28;20222;-76
2024/03/23 00:50:55;;;;;;;8.87;2.17;;;24.70;59.60;;;;;;5074710;28;20211;-74
2024/03/23 00:53:23;;;;;;;5.17;2.07;;;24.70;59.90;;;;;;5077516;28;20516;-73
2024/03/23 00:55:50;;;;;;;9.87;1.97;;;24.80;59.00;;;;;;5075516;28;20179;-76
2024/03/23 00:58:21;;;;;;;7.50;1.97;;;25.00;58.70;;;;;;5076311;28;20221;-73
2024/03/23 01:00:48;;;;;;;9.57;2.00;;;25.40;58.00;;;;;;5073711;28;20248;-72
2024/03/23 01:03:15;;;;;;;8.20;1.60;;;25.40;56.90;;;;;;5064818;28;20171;-70
2024/03/23 01:05:43;;;;;;;5.53;1.63;;;24.70;57.10;;;;;;5080589;28;20240;-72
2024/03/23 01:08:10;;;;;;;9.83;2.20;;;24.80;57.70;;;;;;5074262;28;20235;-72
2024/03/23 01:10:37;;;;;;;8.77;2.03;;;24.90;58.50;;;;;;5080089;28;20182;-73
2024/03/23 01:13:05;;;;;;;8.27;2.17;;;24.90;58.10;;;;;;5078008;28;20218;-75
2024/03/23 01:15:32;;;;;;;10.00;2.20;;;25.00;58.70;;;;;;5082775;28;20247;-75
2024/03/23 01:18:00;;;;;;;10.73;2.27;;;25.20;58.10;;;;;;5078400;28;20268;-72
2024/03/23 01:20:30;;;;;;;6.70;1.77;;;25.60;57.10;;;;;;5081846;28;20261;-76
2024/03/23 01:22:58;;;;;;;10.37;2.10;;;25.50;57.30;;;;;;5098756;28;20209;-75
2024/03/23 01:25:25;;;;;;;9.17;2.53;;;25.60;56.80;;;;;;5081807;28;20265;-74
2024/03/23 01:27:56;;;;;;;7.33;2.07;;;25.70;56.40;;;;;;5078214;28;20219;-74
2024/03/23 01:30:23;;;;;;;12.77;2.83;;;26.00;56.20;;;;;;5075698;28;20206;-74
2024/03/23 01:32:51;;;;;;;11.33;2.00;;;25.40;55.90;;;;;;5080156;28;20219;-75
2024/03/23 01:35:18;;;;;;;6.53;2.07;;;25.70;56.20;;;;;;5066962;28;20179;-73
2024/03/23 01:37:51;;;;;;;6.93;1.73;;;25.90;54.90;;;;;;5094055;28;20306;-74
2024/03/23 01:40:21;;;;;;;8.17;1.70;;;26.30;54.80;;;;;;5084047;28;20190;-76
2024/03/23 01:43:08;;;;;;;9.77;1.83;;;26.90;53.30;;;;;;5080817;28;20191;-75
2024/03/23 01:45:35;;;;;;;5.93;1.77;;;26.80;51.10;;;;;;5081071;28;20182;-72
2024/03/23 01:48:06;;;;;;;12.83;1.90;;;26.40;54.40;;;;;;5081082;28;20254;-71
2024/03/23 01:50:34;;;;;;;6.43;1.90;;;26.80;55.30;;;;;;5085134;28;20186;-74
2024/03/23 01:53:06;;;;;;;6.13;1.60;;;26.80;56.40;;;;;;5079721;28;20710;-74
2024/03/23 01:55:34;;;;;;;7.97;1.67;;;26.30;57.80;;;;;;5078706;28;20645;-74
2024/03/23 01:58:01;;;;;;;12.23;2.43;;;26.20;58.80;;;;;;5077624;28;20190;-72
2024/03/23 02:00:29;;;;;;;5.90;1.63;;;25.90;60.10;;;;;;5077943;28;20186;-70
2024/03/23 02:02:56;;;;;;;8.83;1.90;;;25.60;60.90;;;;;;5070365;28;20184;-70
2024/03/23 02:05:29;;;;;;;7.27;1.77;;;25.30;62.20;;;;;;5077955;28;20182;-72
2024/03/23 02:07:57;;;;;;;5.53;1.50;;;24.90;63.20;;;;;;5091518;28;20273;-71
2024/03/23 02:10:24;;;;;;;7.03;2.23;;;24.50;64.10;;;;;;5082145;28;20174;-71
2024/03/23 02:12:52;;;;;;;11.73;1.90;;;24.40;65.00;;;;;;5080735;28;20187;-71
2024/03/23 02:15:22;;;;;;;6.90;2.07;;;24.30;65.60;;;;;;5082230;28;20236;-71
2024/03/23 02:17:49;;;;;;;10.83;2.07;;;24.20;65.90;;;;;;5078483;28;20642;-70
2024/03/23 02:20:17;;;;;;;8.33;1.83;;;24.30;65.90;;;;;;5078367;28;20224;-71
2024/03/23 02:22:44;;;;;;;5.60;1.70;;;24.30;65.00;;;;;;5077736;28;20180;-72
2024/03/23 02:25:11;;;;;;;8.23;1.83;;;24.60;65.10;;;;;;5078877;28;20171;-71
2024/03/23 02:27:40;;;;;;;12.00;2.20;;;24.80;64.60;;;;;;5080175;28;20219;-71
2024/03/23 02:30:08;;;;;;;9.13;2.13;;;25.00;64.10;;;;;;5074447;28;20179;-74
2024/03/23 02:32:35;;;;;;;9.07;2.20;;;25.30;63.60;;;;;;5077693;28;21456;-70
2024/03/23 02:35:02;;;;;;;12.20;1.87;;;25.60;62.20;;;;;;5082587;28;20177;-73
2024/03/23 02:37:29;;;;;;;7.77;1.47;;;26.20;61.30;;;;;;5084592;28;20175;-73
2024/03/23 02:39:57;;;;;;;5.80;1.83;;;26.80;58.00;;;;;;5081761;28;20189;-72
2024/03/23 02:42:24;;;;;;;8.00;1.87;;;27.10;56.30;;;;;;5085837;28;20186;-73
2024/03/23 02:44:55;;;;;;;6.30;1.30;;;27.30;56.60;;;;;;5080150;28;20179;-73
2024/03/23 02:47:22;;;;;;;6.53;2.13;;;27.80;54.90;;;;;;5084815;28;20217;-73
2024/03/23 02:50:16;;;;;;;14.13;2.03;;;27.80;56.10;;;;;;5078572;28;20183;-71
2024/03/23 02:52:43;;;;;;;5.97;1.43;;;27.50;56.00;;;;;;5075671;28;20187;-73
2024/03/23 02:55:11;;;;;;;8.43;1.90;;;26.70;58.40;;;;;;5084346;28;20229;-73
2024/03/23 02:57:38;;;;;;;6.43;1.97;;;26.40;59.70;;;;;;5081275;28;20194;-72
2024/03/23 03:00:07;;;;;;;9.40;1.90;;;26.20;60.80;;;;;;5081009;28;20185;-74
2024/03/23 03:02:34;;;;;;;7.60;1.80;;;25.90;61.90;;;;;;5079561;28;20178;-72
2024/03/23 03:05:02;;;;;;;6.90;1.80;;;26.00;60.90;;;;;;5081759;28;20176;-72
2024/03/23 03:07:29;;;;;;;9.00;2.17;;;25.80;62.60;;;;;;5080567;28;20214;-71
2024/03/23 03:09:57;;;;;;;7.13;1.90;;;25.80;62.30;;;;;;5083574;28;20187;-72
2024/03/23 03:12:24;;;;;;;9.00;1.80;;;26.30;61.10;;;;;;5082360;28;20297;-73
2024/03/23 03:14:51;;;;;;;9.80;2.00;;;26.60;60.30;;;;;;5077996;28;20689;-75
2024/03/23 03:17:19;;;;;;;8.37;2.10;;;26.80;58.90;;;;;;5082259;28;20248;-71
2024/03/23 03:19:46;;;;;;;5.33;1.70;;;26.90;58.80;;;;;;5076275;28;20207;-72
2024/03/23 03:22:14;;;;;;;5.97;1.57;;;27.30;59.20;;;;;;5082078;28;20649;-75
2024/03/23 03:24:42;;;;;;;8.37;1.83;;;28.00;55.60;;;;;;5086015;28;20191;-73
2024/03/23 03:27:19;;;;;;;10.20;1.90;;;28.30;54.10;;;;;;5081428;28;20222;-74
2024/03/23 03:29:46;;;;;;;6.27;1.40;;;28.30;53.70;;;;;;5074144;28;20199;-78
2024/03/23 03:32:14;;;;;;;9.33;1.83;;;28.20;52.80;;;;;;5077897;28;20652;-76
2024/03/23 03:34:41;;;;;;;7.77;1.63;;;27.70;53.50;;;;;;5077617;28;20208;-77
2024/03/23 03:37:09;;;;;;;5.17;1.60;;;27.10;55.50;;;;;;5073629;28;20188;-77
2024/03/23 03:39:36;;;;;;;8.40;1.50;;;26.80;57.20;;;;;;5060155;28;20572;-73
2024/03/23 03:42:07;;;;;;;3.83;1.80;;;27.60;56.10;;;;;;5083082;28;20190;-74
2024/03/23 03:44:44;;;;;;;4.93;1.53;;;28.10;53.70;;;;;;5078162;28;20179;-77
2024/03/23 03:47:11;;;;;;;6.10;2.03;;;28.30;52.40;;;;;;5073324;28;20218;-74
2024/03/23 03:49:38;;;;;;;7.30;1.40;;;28.50;52.30;;;;;;5073363;28;20179;-76
2024/03/23 03:52:06;;;;;;;4.63;1.60;;;29.20;49.80;;;;;;5076392;28;20194;-73
2024/03/23 03:54:36;;;;;;;7.78;1.40;;;28.70;51.90;;;;;;5075062;28;20585;-76
2024/03/23 03:57:03;;;;;;;13.67;1.63;;;29.30;50.40;;;;;;5082498;28;20186;-74
2024/03/23 03:59:34;;;;;;;6.03;1.70;;;29.80;49.00;;;;;;5076452;28;20405;-73
2024/03/23 04:02:01;;;;;;;6.63;1.60;;;29.30;49.10;;;;;;5074176;28;20178;-75
2024/03/23 04:04:28;;;;;;;9.73;1.55;;;28.90;51.10;;;;;;5073719;28;20198;-76
2024/03/23 04:07:05;;;;;;;9.35;1.60;;;29.20;49.40;;;;;;5073888;28;20214;-72
2024/03/23 04:09:32;;;;;;;5.37;1.33;;;29.00;50.10;;;;;;5091341;28;20181;-74
2024/03/23 04:11:59;;;;;;;5.10;1.75;;;29.80;48.40;;;;;;5081619;28;20191;-75
2024/03/23 04:14:26;;;;;;;5.57;1.43;;;29.60;48.20;;;;;;5078316;28;20190;-78
2024/03/23 04:16:55;;;;;;;3.35;1.33;;;28.90;50.10;;;;;;5080737;28;20183;-76
2024/03/23 04:19:22;;;;;;;5.57;1.23;;;29.30;48.80;;;;;;5062527;28;20779;-75
2024/03/23 04:21:50;;;;;;;6.57;1.23;;;29.70;47.30;;;;;;5077495;28;20642;-74
2024/03/23 04:24:20;;;;;;;5.30;1.50;;;30.10;47.30;;;;;;5077434;28;20184;-74
2024/03/23 04:26:47;;;;;;;9.02;1.60;;;31.00;45.10;;;;;;5081486;28;20175;-74
2024/03/23 04:29:14;;;;;;;5.75;1.70;;;30.10;47.00;;;;;;5078101;28;20215;-75
2024/03/23 04:31:41;;;;;;;3.90;1.40;;;30.30;47.30;;;;;;5081631;28;20201;-74
2024/03/23 04:34:09;;;;;;;6.93;1.60;;;29.20;48.60;;;;;;5077918;28;20189;-79
2024/03/23 04:36:37;;;;;;;5.35;1.20;;;28.80;50.40;;;;;;5071703;28;20185;-74
2024/03/23 04:39:08;;;;;;;8.13;1.60;;;27.90;51.60;;;;;;5076697;28;20222;-73
2024/03/23 04:41:36;;;;;;;4.43;1.40;;;27.50;51.80;;;;;;5078388;28;20598;-76
2024/03/23 04:44:03;;;;;;;6.13;1.60;;;27.00;53.10;;;;;;5073938;28;20222;-76
2024/03/23 04:46:31;;;;;;;5.40;1.37;;;27.00;54.80;;;;;;5078447;28;20600;-74
2024/03/23 04:48:58;;;;;;;11.33;1.60;;;27.10;54.00;;;;;;5079496;28;20533;-75
2024/03/23 04:51:26;;;;;;;8.03;1.27;;;26.80;55.60;;;;;;5097145;28;20172;-72
2024/03/23 04:53:53;;;;;;;5.10;1.47;;;27.10;54.50;;;;;;5075097;28;20654;-73
2024/03/23 04:56:20;;;;;;;4.40;1.47;;;27.50;53.00;;;;;;5076380;28;20241;-72
2024/03/23 04:58:48;;;;;;;9.67;2.20;;;27.10;54.40;;;;;;5083080;28;20175;-73
2024/03/23 05:01:15;;;;;;;8.90;1.33;;;26.80;56.10;;;;;;5076129;28;20191;-72
2024/03/23 05:03:42;;;;;;;5.67;1.57;;;26.40;57.00;;;;;;5078961;28;20187;-72
2024/03/23 05:06:09;;;;;;;5.33;1.50;;;26.40;57.00;;;;;;5081701;28;20191;-74
2024/03/23 05:08:37;;;;;;;6.27;1.53;;;26.10;57.40;;;;;;5073530;28;20298;-73
2024/03/23 05:11:05;;;;;;;6.03;1.87;;;25.60;59.20;;;;;;5076335;28;20175;-74
2024/03/23 05:13:33;;;;;;;6.97;1.43;;;25.30;59.80;;;;;;5078792;28;20203;-73
2024/03/23 05:16:00;;;;;;;5.97;1.30;;;25.10;60.90;;;;;;5075637;28;20179;-74
2024/03/23 05:18:28;;;;;;;5.17;1.23;;;25.00;61.20;;;;;;5081586;28;21004;-74
2024/03/23 05:20:59;;;;;;;7.90;1.40;;;25.00;61.10;;;;;;5081329;28;20586;-76
2024/03/23 05:23:28;;;;;;;8.33;1.30;;;24.80;61.50;;;;;;5080619;28;20232;-75
2024/03/23 05:25:56;;;;;;;7.70;1.53;;;24.80;61.30;;;;;;5078071;28;20187;-72
2024/03/23 05:28:24;;;;;;;7.63;1.50;;;24.90;61.50;;;;;;5077611;28;20215;-72
2024/03/23 05:30:54;;;;;;;4.23;1.60;;;24.50;61.20;;;;;;5076041;28;20218;-73
2024/03/23 05:33:22;;;;;;;6.40;1.60;;;24.50;62.10;;;;;;5077250;28;20187;-74
2024/03/23 05:35:58;;;;;;;5.00;1.70;;;24.60;62.10;;;;;;5078560;28;20618;-73
2024/03/23 05:38:26;;;;;;;7.23;1.37;;;24.80;61.30;;;;;;5075361;28;20238;-72
2024/03/23 05:41:01;;;;;;;9.50;1.50;;;24.70;61.20;;;;;;5066837;28;20190;-72
2024/03/23 05:43:29;;;;;;;7.47;1.23;;;24.50;61.60;;;;;;5080756;28;20239;-72
2024/03/23 05:45:57;;;;;;;6.13;1.40;;;24.60;62.00;;;;;;5080626;28;20182;-77
2024/03/23 05:48:27;;;;;;;10.30;1.80;;;24.60;62.00;;;;;;5079877;28;20373;-74
2024/03/23 05:50:55;;;;;;;6.83;1.60;;;24.40;62.10;;;;;;5078174;28;20640;-74
2024/03/23 05:53:22;;;;;;;5.60;1.80;;;24.40;63.10;;;;;;5079997;28;20236;-75
2024/03/23 05:55:50;;;;;;;5.43;2.07;;;24.50;63.80;;;;;;5077940;28;20190;-73
2024/03/23 05:58:19;;;;;;;10.57;2.57;;;24.40;63.80;;;;;;5075365;28;20186;-73
2024/03/23 06:00:47;;;;;;;4.20;1.63;;;24.30;64.00;;;;;;5077226;28;20174;-71
2024/03/23 06:03:14;;;;;;;6.07;1.70;;;24.20;64.30;;;;;;5072224;28;20183;-74
2024/03/23 06:05:42;;;;;;;6.83;1.77;;;24.10;65.00;;;;;;5075423;28;20233;-71
2024/03/23 06:08:09;;;;;;;5.23;1.70;;;24.20;65.00;;;;;;5076544;28;20208;-74
2024/03/23 06:10:37;;;;;;;6.70;1.60;;;24.10;65.30;;;;;;5101721;28;20186;-72
2024/03/23 06:13:04;;;;;;;12.70;2.30;;;24.20;65.30;;;;;;5081698;28;20184;-72
2024/03/23 06:15:32;;;;;;;5.60;1.23;;;24.20;65.00;;;;;;5085067;28;20185;-72
2024/03/23 06:17:59;;;;;;;8.93;1.90;;;23.90;64.80;;;;;;5082989;28;20187;-72
2024/03/23 06:20:26;;;;;;;10.00;1.60;;;23.90;65.20;;;;;;5082747;28;20251;-71
2024/03/23 06:22:54;;;;;;;5.10;1.40;;;23.90;65.20;;;;;;5085288;28;20215;-72
2024/03/23 06:25:21;;;;;;;10.87;1.83;;;24.00;65.30;;;;;;5079308;28;20189;-74
2024/03/23 06:27:48;;;;;;;6.90;1.73;;;24.00;66.20;;;;;;5079602;28;20256;-71
2024/03/23 06:30:15;;;;;;;9.67;1.90;;;23.90;66.90;;;;;;5077902;28;20179;-72
2024/03/23 06:32:43;;;;;;;7.00;2.00;;;24.00;66.90;;;;;;5080978;28;20178;-73
2024/03/23 06:35:10;;;;;;;8.80;2.20;;;24.00;66.10;;;;;;5075640;28;20617;-75
2024/03/23 06:37:38;;;;;;;4.37;1.10;;;24.00;66.50;;;;;;5079698;28;20706;-71
2024/03/23 06:40:09;;;;;;;11.27;1.70;;;24.20;65.50;;;;;;5078944;28;20182;-71
2024/03/23 06:42:37;;;;;;;4.70;1.50;;;24.20;65.70;;;;;;5079472;28;20197;-74
2024/03/23 06:45:05;;;;;;;8.63;1.70;;;24.20;65.90;;;;;;5079305;28;20229;-72
2024/03/23 06:47:33;;;;;;;8.83;1.60;;;24.90;64.50;;;;;;5081415;28;20763;-73
2024/03/23 06:50:03;;;;;;;10.13;1.43;;;25.10;62.40;;;;;;5082993;28;20296;-71
2024/03/23 06:52:30;;;;;;;6.93;2.07;;;24.90;63.10;;;;;;5087720;28;20567;-71
2024/03/23 06:54:58;;;;;;;7.37;1.87;;;24.80;63.20;;;;;;5065711;28;20179;-73
2024/03/23 06:57:29;;;;;;;11.83;1.87;;;24.50;63.80;;;;;;5100776;28;20524;-74
2024/03/23 06:59:56;;;;;;;8.40;2.03;;;24.10;65.10;;;;;;5079641;28;20521;-75
2024/03/23 07:02:24;;;;;;;10.70;1.90;;;23.80;66.40;;;;;;5084094;28;20183;-73
2024/03/23 07:04:51;;;;;;;8.77;2.03;;;23.70;67.10;;;;;;5077894;28;20190;-72
2024/03/23 07:07:18;;;;;;;7.57;2.00;;;23.50;67.00;;;;;;5079520;28;20256;-71
2024/03/23 07:09:45;;;;;;;8.70;1.97;;;23.40;67.10;;;;;;5076575;28;20171;-71
2024/03/23 07:12:16;;;;;;;9.40;1.77;;;23.30;67.30;;;;;;5081762;28;20210;-73
2024/03/23 07:14:43;;;;;;;8.07;1.87;;;23.20;67.40;;;;;;5078567;28;20254;-74
2024/03/23 07:17:11;;;;;;;8.13;1.83;;;23.10;68.20;;;;;;5082416;28;20597;-73
2024/03/23 07:19:38;;;;;;;5.77;1.40;;;23.00;68.40;;;;;;5079187;28;20186;-71
2024/03/23 07:22:05;;;;;;;6.53;1.70;;;22.90;68.50;;;;;;5086014;28;20240;-74
2024/03/23 07:24:33;;;;;;;6.80;1.90;;;22.90;68.60;;;;;;5081604;28;20174;-72
2024/03/23 07:27:00;;;;;;;7.77;1.60;;;22.80;68.80;;;;;;5075103;28;20171;-72
2024/03/23 07:29:27;;;;;;;8.23;1.73;;;22.80;69.00;;;;;;5079797;28;20267;-71
2024/03/23 07:31:54;;;;;;;7.27;1.97;;;22.80;69.10;;;;;;5077303;28;20527;-73
2024/03/23 07:34:22;;;;;;;7.47;2.10;;;22.80;69.20;;;;;;5079235;28;20180;-72
2024/03/23 07:36:49;;;;;;;9.93;1.90;;;22.80;69.50;;;;;;5077076;28;20187;-72
2024/03/23 07:39:16;;;;;;;5.93;2.20;;;22.80;69.70;;;;;;5080488;28;20238;-72
2024/03/23 07:41:45;;;;;;;7.70;1.80;;;22.70;69.70;;;;;;5075818;28;20243;-71
2024/03/23 07:44:13;;;;;;;10.23;2.20;;;22.70;69.50;;;;;;5077094;28;20179;-71
2024/03/23 07:46:40;;;;;;;5.93;2.00;;;22.50;69.80;;;;;;5077224;28;20223;-72
2024/03/23 07:49:07;;;;;;;8.97;2.30;;;22.50;70.20;;;;;;5078662;28;20229;-72
2024/03/23 07:51:35;;;;;;;11.57;2.37;;;22.40;70.60;;;;;;5078827;28;20260;-71
2024/03/23 07:54:02;;;;;;;7.27;2.13;;;22.50;70.60;;;;;;5075493;28;20186;-72
2024/03/23 07:56:30;;;;;;;10.07;2.03;;;22.40;70.70;;;;;;5082694;28;20179;-73
2024/03/23 07:58:57;;;;;;;8.97;1.90;;;22.40;71.00;;;;;;5080164;28;20261;-72
2024/03/23 08:01:24;;;;;;;8.73;1.70;;;22.40;71.20;;;;;;5068507;28;20642;-72
2024/03/23 08:03:52;;;;;;;6.23;2.10;;;22.40;71.40;;;;;;5094147;28;20183;-72
2024/03/23 08:06:21;;;;;;;7.77;1.70;;;22.30;71.60;;;;;;5081835;28;20190;-72
2024/03/23 08:09:02;;;;;;;8.60;2.30;;;22.30;71.80;;;;;;5079908;28;20629;-71
2024/03/23 08:11:34;;;;;;;7.23;2.20;;;22.30;72.30;;;;;;5078017;28;20193;-72
2024/03/23 08:14:01;;;;;;;9.03;2.03;;;22.20;72.70;;;;;;5080249;28;20181;-70
2024/03/23 08:16:29;;;;;;;8.57;1.83;;;22.20;72.70;;;;;;5080390;28;20185;-71
2024/03/23 08:18:57;;;;;;;7.67;2.10;;;22.10;72.70;;;;;;5076958;28;20262;-72
2024/03/23 08:21:26;;;;;;;7.93;2.13;;;22.10;73.10;;;;;;5077386;28;20175;-71
2024/03/23 08:23:53;;;;;;;9.30;2.40;;;22.10;73.10;;;;;;5075690;28;20502;-72
2024/03/23 08:26:20;;;;;;;9.03;2.33;;;22.10;73.50;;;;;;5081501;28;20760;-72
2024/03/23 08:28:48;;;;;;;7.47;2.70;;;22.00;73.90;;;;;;5080081;28;20215;-71
2024/03/23 08:31:15;;;;;;;6.57;2.00;;;22.00;74.20;;;;;;5077639;28;20233;-71
2024/03/23 08:33:43;;;;;;;7.73;2.40;;;22.10;74.80;;;;;;5079893;28;20660;-74
2024/03/23 08:36:14;;;;;;;11.63;2.40;;;22.10;75.20;;;;;;5077780;28;20258;-71
2024/03/23 08:38:42;;;;;;;9.37;2.93;;;22.10;75.60;;;;;;5075464;28;20226;-71
2024/03/23 08:41:13;;;;;;;10.03;2.50;;;22.10;76.10;;;;;;5075598;28;20179;-71
2024/03/23 08:43:41;;;;;;;8.90;2.60;;;22.10;76.40;;;;;;5079748;28;20244;-74
2024/03/23 08:46:09;;;;;;;6.07;2.83;;;22.10;76.90;;;;;;5077221;28;20182;-71
2024/03/23 08:48:43;;;;;;;13.97;2.87;;;22.00;77.10;;;;;;5076853;28;20536;-71
2024/03/23 08:51:12;;;;;;;5.93;1.97;;;22.00;77.30;;;;;;5075716;28;20179;-71
2024/03/23 08:53:39;;;;;;;7.37;2.37;;;22.00;77.60;;;;;;5078949;28;20641;-73
2024/03/23 08:56:08;;;;;;;6.77;2.27;;;21.90;77.90;;;;;;5078839;28;20236;-73
2024/03/23 08:58:36;;;;;;;6.03;2.30;;;21.90;78.00;;;;;;5074924;28;20182;-73
2024/03/23 09:01:15;;;;;;;6.47;2.10;;;21.90;78.20;;;;;;5079284;28;20184;-72
2024/03/23 09:03:43;;;;;;;7.17;2.30;;;21.80;78.50;;;;;;5077893;28;20183;-71
2024/03/23 09:06:12;;;;;;;9.97;2.03;;;21.80;78.70;;;;;;5075686;28;20179;-72
2024/03/23 09:08:40;;;;;;;6.97;2.20;;;21.80;78.90;;;;;;5075062;28;20234;-71
2024/03/23 09:11:09;;;;;;;7.67;2.43;;;21.80;79.00;;;;;;5080255;28;20217;-71
2024/03/23 09:13:38;;;;;;;7.63;2.23;;;21.80;79.30;;;;;;5078768;28;20202;-72
2024/03/23 09:16:07;;;;;;;7.43;2.17;;;21.70;79.40;;;;;;5076378;28;20248;-72
2024/03/23 09:18:35;;;;;;;7.27;2.37;;;21.70;79.50;;;;;;5070693;28;20272;-73
2024/03/23 09:21:13;;;;;;;5.13;1.60;;;21.70;79.70;;;;;;5084016;28;20175;-72
2024/03/23 09:23:43;;;;;;;8.23;2.50;;;21.70;79.70;;;;;;5078141;28;20190;-71
2024/03/23 09:26:11;;;;;;;8.00;2.47;;;21.70;79.90;;;;;;5085850;28;20197;-73
2024/03/23 09:28:38;;;;;;;7.13;2.40;;;21.60;79.90;;;;;;5080245;28;20211;-71
2024/03/23 09:31:14;;;;;;;8.80;2.43;;;21.60;80.20;;;;;;5084427;28;20209;-72
2024/03/23 09:33:41;;;;;;;9.00;2.53;;;21.60;80.30;;;;;;5092435;28;20178;-71
2024/03/23 09:36:09;;;;;;;3.50;2.30;;;21.50;80.40;;;;;;5084376;28;20279;-75
2024/03/23 09:38:37;;;;;;;7.37;2.50;;;21.50;80.60;;;;;;5079706;28;20230;-72
2024/03/23 09:41:09;;;;;;;9.63;2.33;;;21.50;80.80;;;;;;5078235;28;20247;-72
2024/03/23 09:43:36;;;;;;;8.23;2.70;;;21.50;80.70;;;;;;5079271;28;20680;-71
2024/03/23 09:46:04;;;;;;;9.30;2.63;;;21.50;80.80;;;;;;5084469;28;20223;-71
2024/03/23 09:48:31;;;;;;;9.60;2.80;;;21.50;80.80;;;;;;5081696;28;20352;-71
2024/03/23 09:50:59;;;;;;;11.00;3.23;;;21.50;81.00;;;;;;5081812;28;20236;-73
2024/03/23 09:53:26;;;;;;;10.93;2.93;;;21.50;81.10;;;;;;5084669;28;20186;-71
2024/03/23 09:55:54;;;;;;;7.10;2.60;;;21.50;81.20;;;;;;5076904;28;20664;-71
2024/03/23 09:58:24;;;;;;;6.47;2.60;;;21.50;81.20;;;;;;5086251;28;20191;-72
2024/03/23 10:00:52;;;;;;;7.40;2.77;;;21.50;81.30;;;;;;5084846;28;20181;-72
2024/03/23 10:03:19;;;;;;;4.93;2.53;;;21.40;81.40;;;;;;5087229;28;20180;-71
2024/03/23 10:05:46;;;;;;;10.23;3.10;;;21.40;81.50;;;;;;5088912;28;20181;-71
2024/03/23 10:08:17;;;;;;;13.10;3.23;;;21.40;81.50;;;;;;5082724;28;20297;-72
2024/03/23 10:10:46;;;;;;;7.23;2.93;;;21.40;81.60;;;;;;5082237;28;20208;-77
2024/03/23 10:13:25;;;;;;;12.53;3.93;;;21.40;81.70;;;;;;5069873;28;20282;-73
2024/03/23 10:15:59;;;;;;;5.53;3.07;;;21.40;81.80;;;;;;5087413;28;20182;-71
2024/03/23 10:18:28;;;;;;;6.73;3.43;;;21.40;82.10;;;;;;5085045;28;20182;-71
2024/03/23 10:21:27;;;;;;;7.57;3.63;;;21.30;82.40;;;;;;5087835;28;20183;-73
2024/03/23 10:23:55;;;;;;;10.00;4.30;;;21.30;82.90;;;;;;5085647;28;20660;-71
2024/03/23 10:26:27;;;;;;;5.43;3.90;;;21.30;82.90;;;;;;5088681;28;20186;-69
2024/03/23 10:29:11;;;;;;;8.73;4.50;;;21.30;83.20;;;;;;5090893;28;20571;-75
2024/03/23 10:31:41;;;;;;;7.53;4.77;;;21.30;83.20;;;;;;5084403;28;20179;-76
2024/03/23 10:34:08;;;;;;;11.13;5.50;;;21.30;83.30;;;;;;5082453;28;20179;-72
2024/03/23 10:36:40;;;;;;;10.97;6.43;;;21.30;83.40;;;;;;5069118;28;20186;-72
2024/03/23 10:39:09;;;;;;;11.63;6.87;;;21.30;83.40;;;;;;5081817;28;20878;-73
2024/03/23 10:41:36;;;;;;;8.43;7.37;;;21.30;83.40;;;;;;5072633;28;20642;-73
2024/03/23 10:44:05;;;;;;;11.57;10.40;;;21.30;83.50;;;;;;5081585;28;20179;-74
2024/03/23 10:46:32;;;;;;;12.87;11.17;;;21.30;83.50;;;;;;5085193;28;20226;-71
2024/03/23 10:49:00;;;;;;;14.73;11.77;;;21.30;83.60;;;;;;5079384;28;20219;-74
2024/03/23 10:51:27;;;;;;;13.57;12.17;;;21.30;83.60;;;;;;5076842;28;20274;-73
2024/03/23 10:53:58;;;;;;;14.83;13.40;;;21.30;83.60;;;;;;5084336;28;20185;-71
2024/03/23 10:56:26;;;;;;;18.53;16.83;;;21.30;83.70;;;;;;5080402;28;20186;-71
2024/03/23 10:58:53;;;;;;;19.10;17.53;;;21.30;83.90;;;;;;5080433;28;20191;-75
2024/03/23 11:01:21;;;;;;;17.50;16.10;;;21.30;83.90;;;;;;5082583;28;20203;-72
2024/03/23 11:03:48;;;;;;;18.20;16.73;;;21.30;84.00;;;;;;5081669;28;20179;-72
2024/03/23 11:06:37;;;;;;;21.50;17.60;;;21.30;84.10;;;;;;5088824;28;20266;-73
2024/03/23 11:09:25;;;;;;;17.93;16.43;;;21.30;84.30;;;;;;5084717;28;20211;-73
2024/03/23 11:11:52;;;;;;;18.73;16.97;;;21.30;84.30;;;;;;5079454;28;20203;-72
2024/03/23 11:14:26;;;;;;;19.13;17.27;;;21.30;84.30;;;;;;5080432;28;20175;-70
2024/03/23 11:17:22;;;;;;;19.23;17.47;;;21.30;84.30;;;;;;5085709;28;20676;-75
2024/03/23 11:19:57;;;;;;;18.40;16.63;;;21.40;84.30;;;;;;5046876;28;20191;-71
2024/03/23 11:22:41;;;;;;;19.10;17.60;;;21.30;84.40;;;;;;5085648;28;20190;-72
2024/03/23 11:25:20;;;;;;;19.17;17.33;;;21.40;84.50;;;;;;5083176;28;20177;-72
2024/03/23 11:27:49;;;;;;;19.57;18.03;;;21.40;84.50;;;;;;5083871;28;20558;-72
2024/03/23 11:30:24;;;;;;;19.97;18.10;;;21.40;84.60;;;;;;5084670;28;20187;-72
2024/03/23 11:32:55;;;;;;;19.57;17.90;;;21.40;84.50;;;;;;5083026;28;20208;-72
2024/03/23 11:35:37;;;;;;;19.37;17.53;;;21.50;84.50;;;;;;5084139;28;20598;-73
2024/03/23 11:38:13;;;;;;;20.20;18.40;;;21.50;84.40;;;;;;4981502;28;2826609;-72
2024/03/23 11:40:43;;;;;;;20.80;19.10;;;21.50;84.20;;;;;;5086123;28;20187;-73
2024/03/23 11:43:16;;;;;;;21.23;19.53;;;21.40;84.10;;;;;;5080703;28;20280;-74
2024/03/23 11:45:44;;;;;;;18.93;17.03;;;21.40;84.10;;;;;;5086320;28;20657;-72
2024/03/23 11:48:13;;;;;;;18.10;16.57;;;21.40;84.10;;;;;;5078709;28;20223;-72
2024/03/23 11:50:45;;;;;;;18.10;16.63;;;21.40;84.00;;;;;;5079720;28;20558;-73
2024/03/23 11:53:15;;;;;;;17.87;16.33;;;21.40;84.00;;;;;;5087793;28;20183;-71
2024/03/23 11:55:44;;;;;;;19.77;18.10;;;21.40;83.90;;;;;;5094256;28;20187;-72
2024/03/23 11:58:12;;;;;;;19.03;17.27;;;21.50;83.80;;;;;;5084538;28;20531;-72
2024/03/23 12:00:40;;;;;;;17.03;15.80;;;21.40;83.70;;;;;;5085647;28;20275;-71
2024/03/23 12:03:09;;;;;;;19.80;18.30;;;21.40;83.70;;;;;;5082016;28;20638;-71
2024/03/23 12:05:38;;;;;;;20.37;18.40;;;21.30;83.50;;;;;;5084371;28;20186;-72
2024/03/23 12:08:35;;;;;;;19.57;17.93;;;21.40;83.60;;;;;;5085248;28;20237;-71
2024/03/23 12:11:17;;;;;;;18.80;17.07;;;21.30;83.60;;;;;;5084585;28;20179;-72
2024/03/23 12:13:47;;;;;;;20.87;19.20;;;21.30;83.60;;;;;;5083537;28;20593;-71
2024/03/23 12:16:20;;;;;;;21.07;19.13;;;21.30;83.70;;;;;;5079903;28;20194;-71
2024/03/23 12:18:51;;;;;;;21.37;19.83;;;21.30;83.70;;;;;;5082084;28;20180;-72
2024/03/23 12:21:19;;;;;;;21.37;19.70;;;21.30;83.70;;;;;;5078869;28;20182;-71
2024/03/23 12:23:48;;;;;;;20.23;18.43;;;21.30;83.70;;;;;;5086095;28;20589;-71
2024/03/23 12:26:17;;;;;;;20.70;19.03;;;21.30;83.50;;;;;;5083875;28;20266;-71
2024/03/23 12:28:45;;;;;;;20.57;18.83;;;21.30;83.50;;;;;;5087480;28;20222;-71
2024/03/23 12:31:12;;;;;;;19.43;17.90;;;21.30;83.50;;;;;;5079623;28;20176;-72
2024/03/23 12:33:39;;;;;;;21.70;19.87;;;21.20;83.50;;;;;;5084969;28;20179;-72
2024/03/23 12:36:06;;;;;;;22.80;21.13;;;21.20;83.70;;;;;;5086101;28;20200;-73
2024/03/23 12:38:34;;;;;;;24.27;22.53;;;21.20;84.00;;;;;;5085812;28;20219;-73
2024/03/23 12:41:01;;;;;;;25.17;23.50;;;21.20;84.10;;;;;;5084888;28;20225;-72
2024/03/23 12:43:28;;;;;;;24.80;23.13;;;21.10;84.30;;;;;;5082395;28;20657;-74
2024/03/23 12:45:56;;;;;;;25.60;23.60;;;21.10;84.50;;;;;;5080909;28;20171;-74
2024/03/23 12:48:24;;;;;;;25.23;23.23;;;21.00;84.60;;;;;;5057854;28;20361;-73
2024/03/23 12:50:55;;;;;;;24.33;22.60;;;21.00;84.60;;;;;;5080495;28;20179;-74
2024/03/23 12:53:22;;;;;;;24.30;22.67;;;20.90;84.60;;;;;;5072207;28;20185;-73